createdAt,value
2022-07-30T00:00:46.997Z,3.27
2022-07-30T00:03:13.448Z,3.83
2022-07-30T00:05:39.904Z,5.40
2022-07-30T00:08:06.351Z,4.93
2022-07-30T00:10:32.926Z,4.00
2022-07-30T00:12:59.483Z,4.50
2022-07-30T00:15:25.950Z,5.00
2022-07-30T00:17:52.431Z,5.00
2022-07-30T00:20:19.030Z,4.37
2022-07-30T00:22:45.657Z,5.50
2022-07-30T00:25:12.201Z,5.77
2022-07-30T00:27:38.883Z,7.50
2022-07-30T00:30:06.012Z,4.30
2022-07-30T00:32:32.550Z,5.43
2022-07-30T00:34:58.932Z,7.83
2022-07-30T00:37:25.401Z,6.27
2022-07-30T00:39:52.087Z,4.60
2022-07-30T00:42:25.488Z,4.83
2022-07-30T00:44:53.043Z,6.10
2022-07-30T00:47:20.056Z,5.27
2022-07-30T00:49:46.832Z,4.13
2022-07-30T00:52:13.401Z,4.40
2022-07-30T00:54:39.913Z,5.37
2022-07-30T00:57:06.340Z,4.53
2022-07-30T00:59:33.564Z,4.20
2022-07-30T01:02:01.697Z,5.97
2022-07-30T01:04:28.359Z,7.47
2022-07-30T01:06:54.794Z,4.60
2022-07-30T01:09:21.266Z,7.80
2022-07-30T01:11:48.018Z,5.40
2022-07-30T01:14:14.603Z,6.77
2022-07-30T01:16:43.194Z,5.73
2022-07-30T01:19:41.738Z,4.23
2022-07-30T01:22:43.985Z,5.87
2022-07-30T01:25:27.537Z,7.27
2022-07-30T01:28:06.332Z,5.87
2022-07-30T01:30:35.911Z,5.10
2022-07-30T01:33:04.559Z,4.63
2022-07-30T01:35:33.064Z,6.70
2022-07-30T01:38:01.776Z,6.07
2022-07-30T01:40:29.416Z,5.40
2022-07-30T01:42:58.671Z,4.60
2022-07-30T01:45:28.255Z,8.77
2022-07-30T01:47:58.095Z,5.10
2022-07-30T01:50:25.417Z,4.80
2022-07-30T01:52:54.958Z,7.00
2022-07-30T01:55:27.124Z,5.03
2022-07-30T01:57:55.846Z,5.03
2022-07-30T02:00:24.502Z,6.20
2022-07-30T02:02:50.935Z,4.80
2022-07-30T02:05:17.432Z,4.70
2022-07-30T02:07:59.088Z,7.77
2022-07-30T02:10:36.770Z,6.30
2022-07-30T02:13:06.607Z,5.10
2022-07-30T02:15:44.486Z,5.87
2022-07-30T02:18:23.820Z,5.73
2022-07-30T02:21:13.226Z,5.33
2022-07-30T02:23:44.071Z,5.43
2022-07-30T02:26:18.446Z,6.10
2022-07-30T02:28:49.553Z,5.50
2022-07-30T02:31:19.193Z,7.80
2022-07-30T02:33:49.563Z,6.00
2022-07-30T02:36:18.719Z,6.23
2022-07-30T02:38:47.239Z,5.03
2022-07-30T02:41:15.120Z,5.10
2022-07-30T02:43:42.842Z,4.70
2022-07-30T02:46:12.739Z,7.47
2022-07-30T02:48:41.157Z,7.37
2022-07-30T02:51:08.635Z,5.70
2022-07-30T02:53:36.643Z,5.80
2022-07-30T02:56:07.539Z,5.77
2022-07-30T02:58:35.683Z,7.93
2022-07-30T03:01:03.104Z,6.00
2022-07-30T03:03:30.713Z,5.77
2022-07-30T03:05:59.583Z,5.10
2022-07-30T03:08:31.459Z,4.87
2022-07-30T03:10:58.166Z,6.33
2022-07-30T03:13:25.487Z,6.57
2022-07-30T03:15:53.757Z,6.20
2022-07-30T03:18:22.295Z,5.73
2022-07-30T03:20:56.108Z,5.20
2022-07-30T03:23:24.191Z,8.00
2022-07-30T03:26:02.126Z,6.40
2022-07-30T03:28:31.741Z,7.20
2022-07-30T03:30:58.575Z,5.67
2022-07-30T03:33:38.200Z,6.10
2022-07-30T03:36:06.988Z,5.97
2022-07-30T03:38:36.725Z,6.17
2022-07-30T03:41:04.601Z,5.80
2022-07-30T03:43:32.702Z,9.30
2022-07-30T03:46:02.739Z,6.87
2022-07-30T03:48:29.481Z,6.20
2022-07-30T03:50:56.247Z,9.57
2022-07-30T03:53:27.551Z,5.80
2022-07-30T03:55:54.857Z,7.40
2022-07-30T03:58:21.700Z,10.27
2022-07-30T04:00:50.555Z,7.23
2022-07-30T04:03:27.782Z,5.77
2022-07-30T04:05:54.454Z,6.20
2022-07-30T04:08:20.974Z,6.40
2022-07-30T04:10:48.888Z,5.73
2022-07-30T04:13:15.857Z,6.07
2022-07-30T04:16:05.704Z,5.93
2022-07-30T04:18:50.119Z,5.87
2022-07-30T04:21:19.076Z,6.80
2022-07-30T04:24:02.837Z,5.30
2022-07-30T04:26:33.838Z,6.27
2022-07-30T04:29:02.454Z,7.07
2022-07-30T04:31:29.683Z,6.43
2022-07-30T04:33:58.887Z,8.10
2022-07-30T04:36:32.670Z,5.90
2022-07-30T04:39:00.197Z,6.30
2022-07-30T04:41:26.669Z,6.77
2022-07-30T04:43:53.072Z,7.73
2022-07-30T04:46:19.596Z,6.73
2022-07-30T04:48:48.315Z,8.53
2022-07-30T04:51:31.923Z,6.10
2022-07-30T04:53:59.557Z,7.00
2022-07-30T04:56:26.448Z,8.77
2022-07-30T04:58:54.696Z,7.00
2022-07-30T05:01:34.140Z,7.93
2022-07-30T05:04:10.071Z,6.63
2022-07-30T05:06:38.525Z,6.57
2022-07-30T05:09:06.195Z,7.00
2022-07-30T05:11:32.615Z,6.50
2022-07-30T05:13:59.055Z,8.40
2022-07-30T05:16:25.760Z,8.57
2022-07-30T05:18:52.179Z,6.30
2022-07-30T05:21:18.698Z,8.80
2022-07-30T05:23:50.601Z,8.07
2022-07-30T05:26:21.596Z,7.43
2022-07-30T05:28:53.588Z,6.03
2022-07-30T05:31:22.037Z,6.37
2022-07-30T05:33:48.517Z,6.07
2022-07-30T05:36:15.018Z,6.40
2022-07-30T05:38:41.530Z,6.07
2022-07-30T05:41:19.177Z,6.50
2022-07-30T05:43:55.833Z,8.90
2022-07-30T05:46:23.260Z,7.50
2022-07-30T05:48:49.927Z,7.43
2022-07-30T05:51:16.900Z,8.97
2022-07-30T05:53:43.401Z,8.70
2022-07-30T05:56:09.901Z,8.37
2022-07-30T05:58:36.609Z,8.27
2022-07-30T06:01:03.061Z,8.90
2022-07-30T06:03:29.492Z,8.57
2022-07-30T06:05:55.982Z,10.47
2022-07-30T06:08:22.439Z,9.03
2022-07-30T06:10:48.866Z,10.70
2022-07-30T06:13:15.283Z,9.50
2022-07-30T06:15:41.749Z,8.43
2022-07-30T06:18:08.258Z,8.37
2022-07-30T06:20:35.226Z,8.00
2022-07-30T06:23:01.873Z,8.50
2022-07-30T06:25:28.298Z,8.10
2022-07-30T06:27:54.735Z,7.50
2022-07-30T06:30:21.248Z,9.40
2022-07-30T06:32:57.760Z,7.43
2022-07-30T06:35:24.189Z,8.20
2022-07-30T06:37:59.595Z,8.13
2022-07-30T06:40:34.140Z,8.50
2022-07-30T06:43:00.687Z,8.87
2022-07-30T06:45:27.161Z,8.27
2022-07-30T06:47:59.129Z,7.90
2022-07-30T06:50:27.641Z,8.60
2022-07-30T06:52:54.144Z,10.33
2022-07-30T06:55:20.539Z,8.20
2022-07-30T06:57:47.013Z,7.23
2022-07-30T07:00:13.908Z,7.50
2022-07-30T07:02:42.600Z,8.87
2022-07-30T07:05:09.595Z,8.00
2022-07-30T07:07:41.834Z,11.23
2022-07-30T07:10:09.099Z,10.53
2022-07-30T07:12:35.527Z,8.90
2022-07-30T07:15:03.762Z,8.57
2022-07-30T07:17:30.307Z,13.33
2022-07-30T07:20:01.471Z,11.03
2022-07-30T07:22:28.812Z,9.37
2022-07-30T07:24:56.572Z,8.97
2022-07-30T07:27:23.189Z,12.47
2022-07-30T07:30:04.429Z,8.43
2022-07-30T07:32:32.457Z,9.77
2022-07-30T07:35:00.027Z,10.20
2022-07-30T07:37:26.531Z,10.43
2022-07-30T07:39:53.088Z,11.47
2022-07-30T07:42:19.533Z,10.77
2022-07-30T07:44:45.950Z,11.83
2022-07-30T07:47:12.397Z,11.40
2022-07-30T07:49:47.887Z,11.10
2022-07-30T07:52:14.307Z,12.47
2022-07-30T07:54:40.805Z,13.27
2022-07-30T07:57:08.028Z,9.20
2022-07-30T07:59:40.615Z,11.87
2022-07-30T08:02:08.587Z,15.30
2022-07-30T08:04:35.981Z,12.77
2022-07-30T08:07:03.145Z,11.30
2022-07-30T08:09:44.290Z,12.63
2022-07-30T08:12:12.330Z,8.70
2022-07-30T08:14:39.113Z,12.30
2022-07-30T08:17:06.226Z,9.50
2022-07-30T08:19:33.102Z,12.77
2022-07-30T08:21:59.651Z,9.53
2022-07-30T08:24:27.204Z,10.30
2022-07-30T08:26:53.773Z,9.63
2022-07-30T08:29:20.301Z,10.03
2022-07-30T08:31:46.728Z,10.73
2022-07-30T08:34:13.686Z,14.10
2022-07-30T08:36:41.029Z,10.80
2022-07-30T08:39:07.790Z,7.03
2022-07-30T08:41:36.323Z,14.57
2022-07-30T08:44:03.852Z,9.40
2022-07-30T08:46:32.130Z,8.60
2022-07-30T08:49:00.543Z,11.47
2022-07-30T08:51:35.917Z,7.70
2022-07-30T08:54:03.720Z,8.60
2022-07-30T08:56:31.932Z,12.40
2022-07-30T08:59:00.160Z,11.07
2022-07-30T09:01:26.784Z,6.60
2022-07-30T09:03:53.370Z,7.07
2022-07-30T09:06:19.907Z,8.47
2022-07-30T09:08:46.457Z,7.83
2022-07-30T09:11:12.928Z,8.87
2022-07-30T09:13:48.400Z,7.60
2022-07-30T09:16:26.036Z,9.37
2022-07-30T09:18:54.067Z,9.33
2022-07-30T09:21:26.490Z,8.10
2022-07-30T09:23:55.898Z,8.97
2022-07-30T09:26:22.321Z,7.80
2022-07-30T09:28:48.821Z,9.33
2022-07-30T09:31:16.709Z,9.93
2022-07-30T09:33:45.119Z,8.50
2022-07-30T09:36:16.464Z,6.13
2022-07-30T09:38:48.628Z,11.30
2022-07-30T09:41:37.654Z,6.83
2022-07-30T09:44:05.086Z,11.80
2022-07-30T09:46:47.614Z,8.23
2022-07-30T09:49:16.851Z,6.60
2022-07-30T09:51:56.044Z,9.03
2022-07-30T09:57:22.876Z,8.50
2022-07-30T09:59:54.962Z,8.67
2022-07-30T10:02:28.358Z,7.40
2022-07-30T10:04:54.938Z,7.90
2022-07-30T10:07:25.389Z,8.97
2022-07-30T10:09:53.345Z,12.03
2022-07-30T10:12:24.042Z,7.93
2022-07-30T10:14:53.648Z,10.83
2022-07-30T10:17:20.848Z,7.40
2022-07-30T10:19:48.942Z,8.70
2022-07-30T10:22:17.198Z,6.00
2022-07-30T10:24:45.736Z,13.50
2022-07-30T10:27:12.935Z,9.40
2022-07-30T10:29:42.662Z,8.37
2022-07-30T10:32:09.573Z,8.67
2022-07-30T10:34:38.172Z,8.33
2022-07-30T10:37:12.442Z,8.80
2022-07-30T10:39:47.090Z,10.60
2022-07-30T10:42:38.159Z,13.00
2022-07-30T10:45:36.991Z,15.00
2022-07-30T10:48:13.327Z,12.33
2022-07-30T10:50:54.410Z,15.77
2022-07-30T10:53:42.787Z,7.30
2022-07-30T10:56:15.227Z,6.80
2022-07-30T10:59:11.420Z,5.20
2022-07-30T11:02:00.658Z,5.83
2022-07-30T11:04:29.989Z,4.57
2022-07-30T11:07:30.236Z,7.17
2022-07-30T11:10:09.181Z,6.30
2022-07-30T11:12:42.281Z,4.97
2022-07-30T11:15:19.260Z,7.17
2022-07-30T11:18:12.174Z,5.20
2022-07-30T11:20:40.723Z,6.00
2022-07-30T11:23:10.697Z,3.70
2022-07-30T11:25:51.485Z,3.70
2022-07-30T11:28:40.800Z,4.93
2022-07-30T11:31:55.807Z,3.20
2022-07-30T11:34:19.795Z,3.30
2022-07-30T11:37:22.144Z,2.30
2022-07-30T11:39:58.310Z,2.67
2022-07-30T11:42:34.685Z,3.00
2022-07-30T11:45:16.610Z,3.83
2022-07-30T11:47:53.782Z,3.03
2022-07-30T11:50:26.238Z,3.47
2022-07-30T11:52:58.568Z,2.60
2022-07-30T11:55:27.699Z,4.20
2022-07-30T11:58:00.521Z,4.97
2022-07-30T12:00:34.933Z,4.20
2022-07-30T12:03:07.868Z,3.27
2022-07-30T12:05:34.447Z,4.67
2022-07-30T12:08:00.919Z,2.80
2022-07-30T12:10:27.651Z,3.50
2022-07-30T12:13:07.953Z,2.80
2022-07-30T12:15:37.399Z,3.10
2022-07-30T12:18:26.221Z,6.00
2022-07-30T12:20:54.827Z,3.83
2022-07-30T12:23:24.493Z,5.77
2022-07-30T12:25:51.712Z,7.80
2022-07-30T12:28:23.824Z,3.60
2022-07-30T12:30:52.092Z,3.37
2022-07-30T12:33:19.366Z,4.53
2022-07-30T12:35:48.140Z,2.37
2022-07-30T12:38:16.377Z,3.03
2022-07-30T12:41:03.567Z,3.20
2022-07-30T12:43:55.794Z,4.57
2022-07-30T12:46:27.177Z,2.93
2022-07-30T12:48:55.203Z,4.90
2022-07-30T12:51:24.365Z,3.67
2022-07-30T12:53:51.573Z,5.17
2022-07-30T12:56:20.930Z,4.50
2022-07-30T12:58:47.528Z,6.33
2022-07-30T13:01:15.620Z,4.40
2022-07-30T13:03:43.077Z,3.27
2022-07-30T13:06:25.649Z,3.27
2022-07-30T13:08:53.767Z,7.17
2022-07-30T13:11:22.442Z,5.67
2022-07-30T13:13:50.669Z,3.47
2022-07-30T13:16:18.519Z,3.97
2022-07-30T13:18:45.683Z,2.50
2022-07-30T13:21:13.425Z,3.67
2022-07-30T13:23:41.488Z,4.10
2022-07-30T13:26:08.940Z,5.10
2022-07-30T13:28:35.761Z,3.23
2022-07-30T13:31:02.707Z,2.73
2022-07-30T13:33:29.485Z,3.07
2022-07-30T13:35:55.894Z,3.20
2022-07-30T13:38:22.469Z,3.10
2022-07-30T13:40:49.054Z,2.80
2022-07-30T13:43:15.527Z,2.93
2022-07-30T13:45:42.233Z,2.97
2022-07-30T13:48:08.695Z,3.30
2022-07-30T13:50:35.520Z,2.97
2022-07-30T13:53:02.738Z,3.40
2022-07-30T13:55:29.823Z,2.90
2022-07-30T13:57:56.365Z,3.03
2022-07-30T14:00:23.108Z,3.00
2022-07-30T14:02:49.663Z,2.80
2022-07-30T14:05:16.186Z,4.80
2022-07-30T14:07:42.659Z,5.40
2022-07-30T14:10:09.360Z,7.20
2022-07-30T14:12:35.977Z,4.43
2022-07-30T14:15:02.573Z,3.20
2022-07-30T14:17:29.179Z,5.60
2022-07-30T14:19:56.014Z,3.03
2022-07-30T14:22:22.524Z,4.10
2022-07-30T14:24:49.074Z,3.10
2022-07-30T14:27:15.704Z,4.03
2022-07-30T14:29:42.141Z,3.23
2022-07-30T14:32:08.569Z,3.40
2022-07-30T14:34:35.007Z,4.07
2022-07-30T14:37:01.920Z,5.53
2022-07-30T14:39:28.620Z,2.97
2022-07-30T14:41:56.105Z,2.57
2022-07-30T14:44:23.298Z,2.97
2022-07-30T14:46:52.363Z,3.40
2022-07-30T14:49:28.693Z,4.37
2022-07-30T14:51:55.164Z,4.00
2022-07-30T14:54:22.531Z,5.67
2022-07-30T14:56:52.579Z,4.57
2022-07-30T14:59:21.391Z,2.87
2022-07-30T15:01:47.968Z,5.47
2022-07-30T15:04:14.920Z,5.30
2022-07-30T15:06:41.909Z,3.43
2022-07-30T15:09:09.165Z,5.03
2022-07-30T15:12:03.551Z,3.37
2022-07-30T15:14:22.951Z,4.30
2022-07-30T15:16:51.116Z,4.73
2022-07-30T15:19:17.558Z,3.80
2022-07-30T15:21:44.765Z,6.30
2022-07-30T15:24:11.271Z,4.50
2022-07-30T15:26:37.776Z,3.80
2022-07-30T15:29:04.220Z,5.10
2022-07-30T15:31:30.656Z,3.83
2022-07-30T15:33:57.084Z,3.43
2022-07-30T15:36:23.548Z,3.50
2022-07-30T15:38:49.954Z,2.73
2022-07-30T15:41:17.952Z,3.40
2022-07-30T15:43:44.525Z,3.67
2022-07-30T15:46:11.024Z,3.67
2022-07-30T15:48:37.812Z,3.60
2022-07-30T15:51:05.004Z,3.97
2022-07-30T15:53:32.351Z,4.43
2022-07-30T15:55:59.833Z,3.33
2022-07-30T15:58:26.441Z,2.50
2022-07-30T16:00:52.991Z,3.20
2022-07-30T16:03:19.506Z,4.90
2022-07-30T16:05:51.744Z,4.90
2022-07-30T16:08:20.230Z,3.60
2022-07-30T16:10:46.831Z,4.43
2022-07-30T16:13:13.328Z,4.43
2022-07-30T16:15:39.841Z,4.00
2022-07-30T16:18:06.408Z,4.73
2022-07-30T16:20:33.405Z,6.83
2022-07-30T16:22:59.860Z,3.07
2022-07-30T16:25:26.638Z,2.77
2022-07-30T16:27:53.260Z,3.30
2022-07-30T16:30:19.947Z,2.77
2022-07-30T16:32:46.378Z,3.60
2022-07-30T16:35:13.468Z,2.53
2022-07-30T16:37:40.049Z,2.40
2022-07-30T16:40:06.869Z,3.00
2022-07-30T16:42:33.304Z,2.97
2022-07-30T16:44:59.778Z,4.33
2022-07-30T16:47:26.320Z,4.37
2022-07-30T16:49:52.860Z,3.90
2022-07-30T16:52:19.540Z,2.37
2022-07-30T16:54:46.088Z,2.37
2022-07-30T16:57:12.792Z,3.60
2022-07-30T16:59:42.217Z,2.27
2022-07-30T17:02:10.472Z,13.80
2022-07-30T17:04:36.908Z,22.37
2022-07-30T17:07:03.312Z,6.50
2022-07-30T17:09:36.304Z,3.77
2022-07-30T17:12:05.357Z,3.03
2022-07-30T17:14:34.472Z,2.70
2022-07-30T17:17:00.976Z,1.60
2022-07-30T17:19:27.494Z,4.70
2022-07-30T17:21:53.932Z,1.40
2022-07-30T17:24:20.957Z,2.90
2022-07-30T17:26:47.340Z,2.63
2022-07-30T17:29:15.661Z,2.50
2022-07-30T17:31:44.198Z,3.30
2022-07-30T17:34:13.914Z,2.47
2022-07-30T17:36:42.952Z,2.10
2022-07-30T17:40:04.358Z,1.90
2022-07-30T17:42:05.211Z,3.00
2022-07-30T17:44:32.084Z,3.50
2022-07-30T17:46:59.007Z,1.57
2022-07-30T17:49:25.485Z,2.30
2022-07-30T17:51:51.933Z,6.97
2022-07-30T17:54:18.333Z,2.27
2022-07-30T17:56:44.965Z,1.50
2022-07-30T17:59:13.912Z,3.40
2022-07-30T18:01:40.668Z,5.57
2022-07-30T18:04:07.140Z,3.47
2022-07-30T18:06:33.786Z,3.80
2022-07-30T18:09:00.246Z,1.70
2022-07-30T18:11:26.680Z,3.97
2022-07-30T18:13:53.455Z,1.73
2022-07-30T18:16:19.848Z,3.20
2022-07-30T18:18:46.267Z,4.37
2022-07-30T18:21:12.714Z,2.70
2022-07-30T18:23:39.172Z,2.73
2022-07-30T18:26:05.761Z,3.93
2022-07-30T18:28:33.290Z,3.27
2022-07-30T18:30:59.721Z,5.13
2022-07-30T18:33:26.156Z,3.07
2022-07-30T18:35:52.602Z,2.17
2022-07-30T18:38:19.168Z,2.10
2022-07-30T18:40:57.450Z,3.10
2022-07-30T18:43:28.225Z,2.03
2022-07-30T18:45:55.890Z,3.97
2022-07-30T18:48:22.927Z,2.70
2022-07-30T18:50:49.638Z,3.07
2022-07-30T18:53:16.861Z,2.37
2022-07-30T18:55:44.000Z,2.37
2022-07-30T18:58:10.543Z,4.00
2022-07-30T19:00:37.496Z,4.20
2022-07-30T19:03:04.314Z,2.40
2022-07-30T19:05:31.006Z,5.13
2022-07-30T19:07:58.208Z,3.33
2022-07-30T19:10:26.549Z,2.70
2022-07-30T19:12:54.028Z,2.43
2022-07-30T19:15:20.535Z,2.47
2022-07-30T19:17:48.920Z,2.70
2022-07-30T19:20:15.516Z,16.27
2022-07-30T19:22:41.976Z,2.10
2022-07-30T19:25:09.081Z,3.70
2022-07-30T19:27:35.749Z,2.00
2022-07-30T19:30:03.720Z,1.90
2022-07-30T19:32:30.284Z,2.37
2022-07-30T19:34:56.752Z,3.90
2022-07-30T19:37:23.665Z,2.60
2022-07-30T19:39:58.877Z,2.97
2022-07-30T19:42:33.787Z,3.00
2022-07-30T19:45:01.343Z,3.13
2022-07-30T19:47:39.625Z,5.70
2022-07-30T19:50:09.998Z,3.87
2022-07-30T19:52:36.794Z,4.73
2022-07-30T19:55:17.262Z,2.97
2022-07-30T19:57:54.225Z,3.07
2022-07-30T20:00:24.912Z,1.93
2022-07-30T20:02:52.549Z,8.20
2022-07-30T20:05:19.492Z,2.30
2022-07-30T20:07:47.103Z,3.03
2022-07-30T20:10:15.685Z,2.40
2022-07-30T20:12:42.917Z,2.70
2022-07-30T20:15:16.164Z,3.10
2022-07-30T20:17:42.606Z,2.70
2022-07-30T20:20:10.459Z,2.70
2022-07-30T20:22:36.888Z,2.30
2022-07-30T20:25:06.411Z,4.43
2022-07-30T20:27:36.094Z,2.60
2022-07-30T20:30:04.818Z,3.70
2022-07-30T20:32:31.317Z,3.80
2022-07-30T20:34:58.399Z,3.13
2022-07-30T20:37:27.372Z,2.53
2022-07-30T20:39:54.779Z,3.70
2022-07-30T20:42:21.755Z,2.53
2022-07-30T20:44:51.234Z,2.47
2022-07-30T20:47:34.243Z,4.93
2022-07-30T20:50:02.027Z,3.23
2022-07-30T20:52:28.455Z,2.57
2022-07-30T20:54:55.963Z,4.50
2022-07-30T20:57:56.754Z,3.37
2022-07-30T21:00:09.568Z,5.23
2022-07-30T21:02:36.083Z,4.10
2022-07-30T21:05:04.905Z,3.13
2022-07-30T21:07:36.429Z,2.40
2022-07-30T21:10:04.568Z,2.57
2022-07-30T21:12:33.696Z,4.30
2022-07-30T21:15:00.553Z,3.60
2022-07-30T21:17:27.030Z,2.90
2022-07-30T21:19:54.772Z,4.90
2022-07-30T21:22:22.106Z,1.97
2022-07-30T21:24:50.475Z,2.30
2022-07-30T21:27:16.918Z,2.10
2022-07-30T21:29:45.529Z,2.67
2022-07-30T21:32:12.260Z,4.23
2022-07-30T21:34:40.513Z,4.53
2022-07-30T21:37:08.907Z,2.63
2022-07-30T21:39:39.765Z,5.80
2022-07-30T21:42:08.502Z,2.40
2022-07-30T21:44:35.609Z,1.60
2022-07-30T21:47:02.049Z,2.73
2022-07-30T21:49:29.216Z,2.73
2022-07-30T21:51:58.084Z,3.20
2022-07-30T21:54:29.397Z,3.67
2022-07-30T21:56:58.266Z,4.30
2022-07-30T21:59:25.100Z,2.20
2022-07-30T22:01:55.183Z,2.73
2022-07-30T22:04:21.836Z,2.47
2022-07-30T22:06:48.294Z,2.47
2022-07-30T22:09:19.375Z,3.83
2022-07-30T22:12:00.679Z,2.70
2022-07-30T22:14:28.085Z,4.70
2022-07-30T22:16:55.418Z,2.80
2022-07-30T22:19:21.910Z,4.57
2022-07-30T22:21:51.104Z,4.77
2022-07-30T22:24:29.349Z,2.80
2022-07-30T22:27:11.078Z,5.00
2022-07-30T22:29:43.100Z,3.10
2022-07-30T22:32:10.094Z,5.37
2022-07-30T22:34:37.341Z,4.30
2022-07-30T22:37:03.798Z,3.40
2022-07-30T22:39:32.383Z,4.97
2022-07-30T22:42:16.967Z,5.13
2022-07-30T22:44:45.803Z,5.90
2022-07-30T22:47:20.917Z,4.43
2022-07-30T22:50:00.705Z,3.30
2022-07-30T22:52:27.531Z,3.77
2022-07-30T22:54:59.680Z,3.37
2022-07-30T22:57:37.568Z,3.40
2022-07-30T23:00:07.241Z,4.20
2022-07-30T23:02:37.696Z,4.00
2022-07-30T23:05:04.624Z,3.23
2022-07-30T23:07:38.103Z,4.57
2022-07-30T23:10:20.487Z,3.47
2022-07-30T23:12:53.591Z,3.63
2022-07-30T23:15:20.763Z,3.33
2022-07-30T23:17:47.845Z,3.60
2022-07-30T23:20:20.363Z,5.60
2022-07-30T23:22:47.055Z,3.83
2022-07-30T23:25:13.897Z,4.30
2022-07-30T23:27:41.367Z,5.53
2022-07-30T23:30:09.669Z,8.53
2022-07-30T23:32:36.678Z,4.00
2022-07-30T23:35:03.295Z,5.13
2022-07-30T23:37:29.761Z,3.30
2022-07-30T23:40:14.340Z,8.70
2022-07-30T23:42:40.805Z,5.53
2022-07-30T23:45:07.399Z,3.53
2022-07-30T23:47:49.567Z,4.33
2022-07-30T23:50:20.600Z,6.13
2022-07-30T23:52:47.143Z,3.90
2022-07-30T23:55:13.764Z,5.03
2022-07-30T23:57:40.152Z,4.80
